Time;durP1;ratioP1;P1;durP2;ratioP2;P2;SDS_P1;SDS_P2;PMS_P1;PMS_P2;Temp;Humidity;BMP_temperature;BMP_pressure;BME280_temperature;BME280_humidity;BME280_pressure;Samples;Min_cycle;Max_cycle;Signal;HPM_P1;HPM_P2
2023/03/24 00:01:09;;;;;;;;;;;;;;;10.07;100.00;100152.94;5608951;31;34113;-66
2023/03/24 00:04:16;;;;;;;;;;;;;;;9.98;100.00;100150.28;5609027;31;34770;-66
2023/03/24 00:07:25;;;;;;;;;;;;;;;9.89;100.00;100155.78;5608691;31;34284;-66
2023/03/24 00:10:33;;;;;;;;;;;;;;;9.77;100.00;100151.84;5609217;31;34356;-66
2023/03/24 00:13:40;;;;;;;;;;;;;;;9.72;100.00;100154.16;5608909;31;34897;-66
2023/03/24 00:16:46;;;;;;;;;;;;;;;9.55;100.00;100145.41;5608187;31;34436;-66
2023/03/24 00:19:54;;;;;;;;;;;;;;;9.53;100.00;100139.47;5608804;31;34801;-65
2023/03/24 00:23:00;;;;;;;;;;;;;;;9.56;100.00;100134.66;5608061;31;34746;-65
2023/03/24 00:26:13;;;;;;;;;;;;;;;9.72;100.00;100144.41;5608755;31;34013;-67
2023/03/24 00:29:20;;;;;;;;;;;;;;;9.61;100.00;100128.84;5607895;31;34873;-65
2023/03/24 00:32:24;;;;;;;;;;;;;;;9.59;100.00;100131.66;5608477;31;34294;-65
2023/03/24 00:35:28;;;;;;;;;;;;;;;9.48;100.00;100124.06;5608605;31;34388;-65
2023/03/24 00:38:33;;;;;;;;;;;;;;;9.41;100.00;100123.06;5608722;31;34256;-65
2023/03/24 00:41:43;;;;;;;;;;;;;;;9.35;100.00;100118.44;5608421;31;34180;-65
2023/03/24 00:44:52;;;;;;;;;;;;;;;9.35;100.00;100126.38;5608373;31;34743;-65
2023/03/24 00:47:58;;;;;;;;;;;;;;;9.30;100.00;100118.09;5608305;31;34175;-66
2023/03/24 00:51:06;;;;;;;;;;;;;;;9.25;100.00;100111.66;5607432;31;34200;-65
2023/03/24 00:54:11;;;;;;;;;;;;;;;9.22;100.00;100107.53;5607399;31;34870;-66
2023/03/24 00:57:22;;;;;;;;;;;;;;;9.17;100.00;100107.19;5607379;31;34724;-65
2023/03/24 01:00:29;;;;;;;;;;;;;;;9.12;100.00;100096.28;5608021;31;34689;-66
2023/03/24 01:03:42;;;;;;;;;;;;;;;9.09;100.00;100097.44;5608017;31;34631;-66
2023/03/24 01:06:51;;;;;;;;;;;;;;;9.08;100.00;100100.25;5607014;31;34550;-66
2023/03/24 01:10:00;;;;;;;;;;;;;;;9.04;100.00;100091.81;5607818;31;34581;-65
2023/03/24 01:13:10;;;;;;;;;;;;;;;9.04;100.00;100093.63;5607810;31;34477;-65
2023/03/24 01:16:18;;;;;;;;;;;;;;;9.05;100.00;100097.94;5607623;31;34106;-65
2023/03/24 01:19:27;;;;;;;;;;;;;;;9.05;100.00;100088.16;5607757;31;34704;-65
2023/03/24 01:22:36;;;;;;;;;;;;;;;9.11;100.00;100073.44;5607638;31;34386;-65
2023/03/24 01:25:44;;;;;;;;;;;;;;;9.64;100.00;100066.75;5606804;31;34751;-66
2023/03/24 01:28:51;;;;;;;;;;;;;;;9.71;100.00;100065.09;5609223;31;34810;-65
2023/03/24 01:31:59;;;;;;;;;;;;;;;9.58;100.00;100065.62;5609780;31;34038;-65
2023/03/24 01:35:10;;;;;;;;;;;;;;;9.46;100.00;100066.97;5610505;31;34397;-65
2023/03/24 01:38:18;;;;;;;;;;;;;;;9.26;100.00;100071.78;5610543;31;34270;-65
2023/03/24 01:41:23;;;;;;;;;;;;;;;9.17;100.00;100064.84;5610401;31;34764;-66
2023/03/24 01:44:32;;;;;;;;;;;;;;;9.14;100.00;100063.38;5610357;31;34165;-66
2023/03/24 01:47:40;;;;;;;;;;;;;;;9.20;100.00;100053.91;5610391;31;34622;-65
2023/03/24 01:50:54;;;;;;;;;;;;;;;9.18;100.00;100055.91;5609626;31;33499;-65
2023/03/24 01:54:01;;;;;;;;;;;;;;;9.14;100.00;100058.09;5610226;31;34303;-65
2023/03/24 01:57:13;;;;;;;;;;;;;;;9.35;100.00;100052.25;5610272;31;34553;-66
2023/03/24 02:00:22;;;;;;;;;;;;;;;9.26;100.00;100055.06;5609448;31;34513;-66
2023/03/24 02:03:38;;;;;;;;;;;;;;;9.13;100.00;100052.94;5610218;31;34279;-65
2023/03/24 02:06:44;;;;;;;;;;;;;;;9.07;100.00;100057.06;5605954;31;34224;-66
2023/03/24 02:09:52;;;;;;;;;;;;;;;9.04;100.00;100049.47;5607685;31;34127;-66
2023/03/24 02:12:59;;;;;;;;;;;;;;;9.02;100.00;100054.09;5610062;31;34896;-66
2023/03/24 02:16:07;;;;;;;;;;;;;;;9.00;100.00;100057.91;5610019;31;34100;-66
2023/03/24 02:19:25;;;;;;;;;;;;;;;8.95;100.00;100054.94;5609286;31;34220;-65
2023/03/24 02:22:43;;;;;;;;;;;;;;;8.92;100.00;100061.37;5609974;31;34181;-65
2023/03/24 02:25:53;;;;;;;;;;;;;;;8.89;100.00;100055.59;5608874;31;33417;-65
2023/03/24 02:29:20;;;;;;;;;;;;;;;8.87;100.00;100058.38;5609985;31;34236;-65
2023/03/24 02:32:37;;;;;;;;;;;;;;;8.85;100.00;100065.69;5609944;31;34234;-65
2023/03/24 02:36:04;;;;;;;;;;;;;;;8.77;100.00;100064.81;5610098;31;34900;-66
2023/03/24 02:39:30;;;;;;;;;;;;;;;8.71;100.00;100056.56;5608908;31;34249;-65
2023/03/24 02:42:49;;;;;;;;;;;;;;;8.69;100.00;100055.06;5609128;31;34337;-65
2023/03/24 02:46:02;;;;;;;;;;;;;;;8.69;100.00;100055.91;5609853;31;34367;-65
2023/03/24 02:49:11;;;;;;;;;;;;;;;8.72;100.00;100062.66;5609268;31;34518;-65
2023/03/24 02:52:28;;;;;;;;;;;;;;;8.66;100.00;100044.84;5609817;31;34578;-65
2023/03/24 02:55:53;;;;;;;;;;;;;;;8.63;100.00;100050.44;5609754;31;33993;-65
2023/03/24 02:59:05;;;;;;;;;;;;;;;8.59;100.00;100039.38;5609651;31;34873;-65
2023/03/24 03:02:15;;;;;;;;;;;;;;;8.58;100.00;100028.94;5609729;31;34373;-66
2023/03/24 03:05:26;;;;;;;;;;;;;;;8.59;100.00;100026.16;5597495;31;34350;-65
2023/03/24 03:08:33;;;;;;;;;;;;;;;8.56;100.00;100033.59;5608676;31;34048;-65
2023/03/24 03:11:45;;;;;;;;;;;;;;;8.50;100.00;100028.94;5609722;31;33766;-65
2023/03/24 03:14:56;;;;;;;;;;;;;;;8.44;100.00;100029.59;5608831;31;33854;-65
2023/03/24 03:18:06;;;;;;;;;;;;;;;8.43;100.00;100017.34;5609449;31;34891;-65
2023/03/24 03:21:14;;;;;;;;;;;;;;;8.41;100.00;100019.34;5608838;31;34540;-65
2023/03/24 03:24:25;;;;;;;;;;;;;;;8.40;100.00;100026.44;5609441;31;34229;-66
2023/03/24 03:27:37;;;;;;;;;;;;;;;8.35;100.00;100030.56;5608658;31;34182;-65
2023/03/24 03:30:56;;;;;;;;;;;;;;;8.32;100.00;100025.59;5609380;31;34303;-66
2023/03/24 03:34:17;;;;;;;;;;;;;;;8.29;100.00;100029.34;5609455;31;34787;-66
2023/03/24 03:37:25;;;;;;;;;;;;;;;8.29;100.00;100026.72;5609421;31;34035;-65
2023/03/24 03:40:37;;;;;;;;;;;;;;;8.27;100.00;100028.72;5609280;31;34788;-65
2023/03/24 03:43:51;;;;;;;;;;;;;;;8.28;100.00;100032.97;5609409;31;34400;-66
2023/03/24 03:46:59;;;;;;;;;;;;;;;8.27;100.00;100024.25;5609354;31;34190;-66
2023/03/24 03:50:10;;;;;;;;;;;;;;;8.25;100.00;100022.75;5594813;31;33258;-66
2023/03/24 03:53:22;;;;;;;;;;;;;;;8.20;100.00;100012.66;5609402;31;33908;-65
2023/03/24 03:56:31;;;;;;;;;;;;;;;8.18;100.00;100009.34;5608562;31;34756;-66
2023/03/24 03:59:40;;;;;;;;;;;;;;;8.10;100.00;100011.97;5609257;31;34188;-66
2023/03/24 04:03:06;;;;;;;;;;;;;;;8.08;100.00;100011.31;5609097;31;34203;-65
2023/03/24 04:06:24;;;;;;;;;;;;;;;8.04;100.00;100004.69;5608338;31;34840;-66
2023/03/24 04:09:31;;;;;;;;;;;;;;;7.97;100.00;100003.69;5565191;31;1376828;-65
2023/03/24 04:12:39;;;;;;;;;;;;;;;7.93;100.00;100004.16;5608924;31;34710;-66
2023/03/24 04:15:57;;;;;;;;;;;;;;;7.87;100.00;100009.09;5609206;31;34178;-66
2023/03/24 04:19:15;;;;;;;;;;;;;;;7.86;100.00;100001.31;5608813;31;34197;-65
2023/03/24 04:22:39;;;;;;;;;;;;;;;7.81;100.00;100008.88;5608786;31;34815;-67
2023/03/24 04:25:57;;;;;;;;;;;;;;;7.79;100.00;100009.03;5608038;31;33833;-65
2023/03/24 04:29:17;;;;;;;;;;;;;;;7.79;100.00;100013.53;5607576;31;33553;-65
2023/03/24 04:32:31;;;;;;;;;;;;;;;7.74;100.00;100008.72;5608893;31;34121;-65
2023/03/24 04:35:43;;;;;;;;;;;;;;;7.69;100.00;100008.38;5608590;31;34870;-65
2023/03/24 04:38:56;;;;;;;;;;;;;;;7.67;100.00;100007.69;5608397;31;34810;-66
2023/03/24 04:42:07;;;;;;;;;;;;;;;7.63;100.00;100009.00;5608394;31;34105;-65
2023/03/24 04:45:13;;;;;;;;;;;;;;;7.60;100.00;100019.03;5607608;31;34843;-66
2023/03/24 04:48:25;;;;;;;;;;;;;;;7.57;100.00;100014.88;5608329;31;34878;-67
2023/03/24 04:51:34;;;;;;;;;;;;;;;7.60;100.00;100021.69;5608336;31;34288;-66
2023/03/24 04:54:41;;;;;;;;;;;;;;;7.62;100.00;100030.25;5608265;31;34749;-66
2023/03/24 04:57:49;;;;;;;;;;;;;;;7.65;100.00;100025.47;5594946;31;34758;-67
2023/03/24 05:00:57;;;;;;;;;;;;;;;7.70;100.00;100025.84;5608135;31;34245;-66
2023/03/24 05:04:07;;;;;;;;;;;;;;;7.75;100.00;100012.16;5610068;31;34869;-66
2023/03/24 05:07:14;;;;;;;;;;;;;;;7.95;100.00;100018.00;5610729;31;34176;-66
2023/03/24 05:10:24;;;;;;;;;;;;;;;7.96;100.00;100017.88;5609769;31;34305;-67
2023/03/24 05:13:31;;;;;;;;;;;;;;;8.00;100.00;100019.19;5610683;31;34863;-66
2023/03/24 05:16:39;;;;;;;;;;;;;;;8.04;100.00;100019.69;5610795;31;34550;-66
2023/03/24 05:19:48;;;;;;;;;;;;;;;8.11;100.00;100029.47;5609908;31;34210;-66
2023/03/24 05:22:57;;;;;;;;;;;;;;;8.17;100.00;100030.66;5610534;31;34847;-67
2023/03/24 05:26:05;;;;;;;;;;;;;;;8.21;100.00;100021.41;5610358;31;34225;-65
2023/03/24 05:29:14;;;;;;;;;;;;;;;8.34;100.00;100026.25;5609649;31;34625;-66
2023/03/24 05:32:22;;;;;;;;;;;;;;;8.42;100.00;100029.78;5609710;31;34512;-66
2023/03/24 05:35:31;;;;;;;;;;;;;;;8.53;100.00;100032.06;5610460;31;34627;-66
2023/03/24 05:38:39;;;;;;;;;;;;;;;8.66;100.00;100036.91;5610118;31;34806;-67
2023/03/24 05:41:46;;;;;;;;;;;;;;;8.80;100.00;100035.41;5609065;31;34119;-66
2023/03/24 05:44:51;;;;;;;;;;;;;;;8.92;100.00;100034.09;5596794;31;32955;-66
2023/03/24 05:47:58;;;;;;;;;;;;;;;9.09;100.00;100047.16;5610301;31;34337;-66
2023/03/24 05:51:07;;;;;;;;;;;;;;;9.33;100.00;100048.13;5609462;31;34441;-66
2023/03/24 05:54:13;;;;;;;;;;;;;;;9.59;100.00;100048.72;5610158;31;34335;-67
2023/03/24 05:57:20;;;;;;;;;;;;;;;9.93;100.00;100043.97;5610090;31;34563;-66
2023/03/24 06:00:27;;;;;;;;;;;;;;;10.30;100.00;100050.47;5609302;31;34142;-67
2023/03/24 06:03:37;;;;;;;;;;;;;;;10.68;100.00;100043.44;5610257;31;34816;-67
2023/03/24 06:06:44;;;;;;;;;;;;;;;10.99;100.00;100043.38;5610031;31;34493;-67
2023/03/24 06:09:56;;;;;;;;;;;;;;;11.31;96.32;100048.41;5609931;31;34861;-67
2023/03/24 06:13:02;;;;;;;;;;;;;;;11.36;93.48;100042.56;5608707;31;34985;-68
2023/03/24 06:16:08;;;;;;;;;;;;;;;11.54;90.22;100051.00;5609112;31;34029;-68
2023/03/24 06:19:13;;;;;;;;;;;;;;;11.64;89.96;100043.59;5609822;31;34799;-67
2023/03/24 06:22:20;;;;;;;;;;;;;;;11.67;87.43;100051.19;5608870;31;34506;-68
2023/03/24 06:25:26;;;;;;;;;;;;;;;11.62;88.72;100057.03;5609457;31;33958;-67
2023/03/24 06:28:33;;;;;;;;;;;;;;;11.75;87.41;100053.78;5609166;31;34659;-67
2023/03/24 06:31:38;;;;;;;;;;;;;;;11.83;85.91;100059.00;5608669;31;34149;-67
2023/03/24 06:34:44;;;;;;;;;;;;;;;11.86;80.11;100058.63;5609059;31;34360;-67
2023/03/24 06:37:51;;;;;;;;;;;;;;;11.93;80.81;100054.25;5608690;31;34803;-67
2023/03/24 06:40:59;;;;;;;;;;;;;;;12.37;78.63;100050.69;5609600;31;33088;-68
2023/03/24 06:44:02;;;;;;;;;;;;;;;12.88;72.80;100057.56;5609366;31;33393;-68
2023/03/24 06:47:11;;;;;;;;;;;;;;;13.34;69.99;100057.19;5609489;31;33848;-68
2023/03/24 06:50:14;;;;;;;;;;;;;;;13.79;67.46;100053.19;5609301;31;34351;-68
2023/03/24 06:53:20;;;;;;;;;;;;;;;13.64;65.93;100049.81;5608190;31;34701;-68
2023/03/24 06:56:24;;;;;;;;;;;;;;;13.45;66.35;100038.84;5609173;31;34796;-68
2023/03/24 06:59:29;;;;;;;;;;;;;;;14.41;64.51;100042.41;5609328;31;34239;-67
2023/03/24 07:02:34;;;;;;;;;;;;;;;15.18;60.77;100047.28;5609379;31;34266;-68
2023/03/24 07:05:42;;;;;;;;;;;;;;;16.44;55.29;100051.31;5596301;31;34115;-68
2023/03/24 07:08:46;;;;;;;;;;;;;;;15.63;54.95;100033.09;5607711;31;33447;-68
2023/03/24 07:11:50;;;;;;;;;;;;;;;14.52;59.30;100030.34;5608928;31;34224;-67
2023/03/24 07:14:54;;;;;;;;;;;;;;;15.91;56.52;100037.31;5609261;31;34195;-67
2023/03/24 07:17:59;;;;;;;;;;;;;;;17.55;51.13;100033.59;5609212;31;34356;-69
2023/03/24 07:21:04;;;;;;;;;;;;;;;18.23;48.70;100028.13;5609258;31;34642;-69
2023/03/24 07:24:09;;;;;;;;;;;;;;;17.54;49.26;100033.81;5608962;31;34126;-68
2023/03/24 07:27:12;;;;;;;;;;;;;;;19.10;45.77;100035.56;5607607;31;34388;-69
2023/03/24 07:30:17;;;;;;;;;;;;;;;18.51;46.13;100024.84;5609287;31;34873;-68
2023/03/24 07:33:30;;;;;;;;;;;;;;;20.03;43.48;100028.56;5609356;31;34104;-68
2023/03/24 07:36:35;;;;;;;;;;;;;;;21.06;40.66;100022.94;5609352;31;34875;-69
2023/03/24 07:39:40;;;;;;;;;;;;;;;19.86;41.39;100013.13;5608519;31;34311;-69
2023/03/24 07:42:46;;;;;;;;;;;;;;;20.19;42.55;100009.75;5608012;31;32883;-69
2023/03/24 07:45:51;;;;;;;;;;;;;;;21.40;39.08;100007.59;5609120;31;34303;-68
2023/03/24 07:48:56;;;;;;;;;;;;;;;21.37;38.88;100010.81;5609162;31;34364;-70
2023/03/24 07:52:11;;;;;;;;;;;;;;;21.04;38.54;100020.50;5608964;31;34291;-69
2023/03/24 07:55:16;;;;;;;;;;;;;;;20.28;41.25;100011.00;5608281;31;34269;-68
2023/03/24 07:58:22;;;;;;;;;;;;;;;22.25;37.13;100015.25;5608983;31;34789;-70
2023/03/24 08:01:28;;;;;;;;;;;;;;;21.05;38.05;100016.75;5608803;31;34116;-68
2023/03/24 08:04:33;;;;;;;;;;;;;;;21.28;38.25;100012.28;5608762;31;34540;-68
2023/03/24 08:07:41;;;;;;;;;;;;;;;21.85;37.06;100008.25;5609091;31;34172;-68
2023/03/24 08:10:48;;;;;;;;;;;;;;;19.89;39.60;100001.91;5608775;31;34261;-68
2023/03/24 08:13:54;;;;;;;;;;;;;;;22.39;36.71;99986.75;5608679;31;34560;-68
2023/03/24 08:16:58;;;;;;;;;;;;;;;20.65;38.75;99991.78;5608218;31;34215;-68
2023/03/24 08:20:13;;;;;;;;;;;;;;;19.90;39.57;99986.53;5608238;31;34288;-68
2023/03/24 08:23:19;;;;;;;;;;;;;;;20.02;40.80;99978.44;5608627;31;34199;-68
2023/03/24 08:26:25;;;;;;;;;;;;;;;20.97;37.90;99982.09;5608613;31;34844;-68
2023/03/24 08:29:29;;;;;;;;;;;;;;;21.26;37.65;99969.34;5607832;31;34324;-68
2023/03/24 08:32:35;;;;;;;;;;;;;;;21.49;37.37;99966.47;5608539;31;34811;-68
2023/03/24 08:35:39;;;;;;;;;;;;;;;19.67;40.08;99960.50;5607787;31;34822;-68
2023/03/24 08:38:47;;;;;;;;;;;;;;;20.72;38.67;99969.00;5610675;31;34917;-68
2023/03/24 08:41:53;;;;;;;;;;;;;;;21.16;38.17;99963.81;5610211;31;34560;-68
2023/03/24 08:44:57;;;;;;;;;;;;;;;22.43;36.18;99961.66;5610949;31;34210;-69
2023/03/24 08:48:01;;;;;;;;;;;;;;;22.86;35.09;99958.03;5609519;31;34203;-68
2023/03/24 08:51:09;;;;;;;;;;;;;;;20.57;38.42;99947.19;5610154;31;34496;-69
2023/03/24 08:54:13;;;;;;;;;;;;;;;20.29;39.20;99947.19;5610718;31;34320;-68
2023/03/24 08:57:18;;;;;;;;;;;;;;;19.70;41.11;99954.66;5610442;31;34854;-69
2023/03/24 09:00:24;;;;;;;;;;;;;;;21.05;38.20;99951.22;5609737;31;34422;-68
2023/03/24 09:03:27;;;;;;;;;;;;;;;19.94;40.47;99948.13;5610588;31;35078;-70
2023/03/24 09:06:31;;;;;;;;;;;;;;;19.73;41.14;99947.97;5610602;31;34915;-68
2023/03/24 09:09:35;;;;;;;;;;;;;;;19.10;42.09;99954.09;5609867;31;34290;-68
2023/03/24 09:12:41;;;;;;;;;;;;;;;18.65;43.34;99938.50;5611082;31;34227;-68
2023/03/24 09:15:51;;;;;;;;;;;;;;;18.21;43.88;99941.59;5610750;31;34305;-68
2023/03/24 09:18:55;;;;;;;;;;;;;;;17.91;45.67;99940.78;5610255;31;34873;-68
2023/03/24 09:22:01;;;;;;;;;;;;;;;17.93;46.27;99933.31;5610222;31;34866;-68
2023/03/24 09:25:06;;;;;;;;;;;;;;;17.97;45.61;99929.12;5609863;31;33896;-68
2023/03/24 09:28:10;;;;;;;;;;;;;;;17.75;46.18;99928.81;5610458;31;34848;-67
2023/03/24 09:31:15;;;;;;;;;;;;;;;17.76;46.46;99931.28;5609706;31;33812;-69
2023/03/24 09:34:20;;;;;;;;;;;;;;;17.77;46.38;99927.53;5610050;31;34632;-68
2023/03/24 09:37:23;;;;;;;;;;;;;;;17.50;46.78;99922.66;5609266;31;34198;-68
2023/03/24 09:40:27;;;;;;;;;;;;;;;17.49;47.07;99929.06;5610406;31;34341;-68
2023/03/24 09:43:37;;;;;;;;;;;;;;;17.56;47.18;99925.28;5610337;31;34254;-67
2023/03/24 09:46:46;;;;;;;;;;;;;;;17.54;47.49;99913.94;5610162;31;34333;-68
2023/03/24 09:49:51;;;;;;;;;;;;;;;17.56;48.62;99903.84;5609314;31;34448;-68
2023/03/24 09:52:58;;;;;;;;;;;;;;;17.68;47.88;99904.72;5609377;31;34376;-68
2023/03/24 09:56:08;;;;;;;;;;;;;;;17.53;48.29;99890.84;5609116;31;34871;-69
2023/03/24 09:59:28;;;;;;;;;;;;;;;17.82;48.33;99883.91;5609305;31;33678;-68
2023/03/24 10:02:33;;;;;;;;;;;;;;;17.99;47.29;99882.25;5609215;31;33374;-67
2023/03/24 10:05:43;;;;;;;;;;;;;;;18.15;47.35;99878.09;5609938;31;34384;-67
2023/03/24 10:08:50;;;;;;;;;;;;;;;17.98;48.23;99875.22;5609741;31;34840;-67
2023/03/24 10:12:15;;;;;;;;;;;;;;;18.23;47.33;99869.72;5608825;31;34318;-68
2023/03/24 10:15:25;;;;;;;;;;;;;;;18.70;46.36;99867.94;5609821;31;34054;-68
2023/03/24 10:19:08;;;;;;;;;;;;;;;19.32;44.96;99866.38;5609883;31;34736;-68
2023/03/24 10:22:52;;;;;;;;;;;;;;;20.03;42.96;99867.81;5609762;31;34167;-68
2023/03/24 10:26:15;;;;;;;;;;;;;;;20.12;42.98;99862.84;5529925;32;34909;-68
2023/03/24 10:29:34;;;;;;;;;;;;;;;20.46;42.95;99858.34;5529354;32;34833;-67
2023/03/24 10:32:41;;;;;;;;;;;;;;;20.59;41.75;99849.91;5504214;32;34492;-68
2023/03/24 10:35:57;;;;;;;;;;;;;;;20.47;42.03;99849.19;5516966;32;34637;-69
2023/03/24 10:39:04;;;;;;;;;;;;;;;20.76;41.83;99846.16;5529686;32;34414;-69
2023/03/24 10:42:17;;;;;;;;;;;;;;;20.63;41.35;99834.88;5529352;32;34745;-67
2023/03/24 10:45:27;;;;;;;;;;;;;;;20.26;41.92;99846.13;5529468;32;34118;-69
2023/03/24 10:48:39;;;;;;;;;;;;;;;20.09;42.40;99841.78;5529668;32;34117;-68
2023/03/24 10:51:48;;;;;;;;;;;;;;;20.06;42.05;99843.09;5529525;32;34676;-68
2023/03/24 10:54:54;;;;;;;;;;;;;;;20.32;41.40;99831.72;5529342;32;34686;-68
2023/03/24 10:57:59;;;;;;;;;;;;;;;20.33;41.16;99838.72;5608839;31;34709;-68
2023/03/24 11:01:22;;;;;;;;;;;;;;;20.19;41.33;99832.00;5608446;31;34659;-68
2023/03/24 11:04:29;;;;;;;;;;;;;;;22.13;38.04;99830.84;5609056;31;33115;-68
2023/03/24 11:07:37;;;;;;;;;;;;;;;24.52;34.12;99828.97;5608438;31;34307;-67
2023/03/24 11:10:45;;;;;;;;;;;;;;;25.38;32.26;99818.72;5609067;31;34879;-70
2023/03/24 11:13:56;;;;;;;;;;;;;;;27.56;29.03;99823.16;5609200;31;34317;-68
2023/03/24 11:17:19;;;;;;;;;;;;;;;24.77;32.21;99807.22;5607807;31;33190;-69
2023/03/24 11:20:34;;;;;;;;;;;;;;;28.27;28.02;99805.72;5608863;31;34294;-68
2023/03/24 11:23:41;;;;;;;;;;;;;;;28.38;27.53;99800.94;5608582;31;34284;-69
2023/03/24 11:26:52;;;;;;;;;;;;;;;29.48;25.96;99805.41;5608982;31;34315;-69
2023/03/24 11:29:57;;;;;;;;;;;;;;;29.96;25.57;99796.69;5608576;31;34106;-69
2023/03/24 11:33:03;;;;;;;;;;;;;;;30.49;24.80;99786.63;5609104;31;34264;-70
2023/03/24 11:36:27;;;;;;;;;;;;;;;28.34;26.44;99778.09;5608981;31;34403;-69
2023/03/24 11:39:33;;;;;;;;;;;;;;;25.02;30.77;99771.91;5608932;31;34385;-68
2023/03/24 11:42:41;;;;;;;;;;;;;;;27.76;27.85;99774.91;5608199;31;34490;-69
2023/03/24 11:46:12;;;;;;;;;;;;;;;28.86;26.57;99765.94;5609006;31;34292;-71
2023/03/24 11:49:18;;;;;;;;;;;;;;;27.07;28.24;99760.81;5608284;31;34756;-69
2023/03/24 11:52:24;;;;;;;;;;;;;;;25.20;30.66;99739.81;5608068;31;34260;-69
2023/03/24 11:55:36;;;;;;;;;;;;;;;25.95;29.59;99744.75;5608959;31;34407;-69
2023/03/24 11:58:42;;;;;;;;;;;;;;;27.91;27.35;99747.41;5608766;31;34320;-69
2023/03/24 12:01:55;;;;;;;;;;;;;;;30.11;24.60;99744.34;5607907;31;34447;-68
2023/03/24 12:05:03;;;;;;;;;;;;;;;31.76;22.58;99742.66;5607871;31;34313;-70
2023/03/24 12:08:10;;;;;;;;;;;;;;;29.12;25.09;99728.81;5608225;31;34301;-70
2023/03/24 12:11:27;;;;;;;;;;;;;;;29.76;24.47;99716.72;5607086;31;34161;-69
2023/03/24 12:14:31;;;;;;;;;;;;;;;30.21;24.06;99703.84;5608380;31;34451;-69
2023/03/24 12:17:53;;;;;;;;;;;;;;;30.20;23.69;99704.16;5607871;31;34305;-69
2023/03/24 12:21:15;;;;;;;;;;;;;;;29.52;24.13;99705.28;5608626;31;34026;-69
2023/03/24 12:24:22;;;;;;;;;;;;;;;29.83;23.55;99697.13;5607657;31;34225;-70
2023/03/24 12:27:51;;;;;;;;;;;;;;;32.06;22.06;99690.66;5607491;31;34195;-70
2023/03/24 12:30:55;;;;;;;;;;;;;;;31.37;22.03;99677.78;5608586;31;34162;-69
2023/03/24 12:34:06;;;;;;;;;;;;;;;28.72;23.45;99680.50;5607600;31;34362;-70
2023/03/24 12:37:18;;;;;;;;;;;;;;;25.32;27.62;99677.84;5607635;31;34955;-70
2023/03/24 12:40:36;;;;;;;;;;;;;;;25.40;27.94;99664.47;5607377;31;34173;-69
2023/03/24 12:43:59;;;;;;;;;;;;;;;26.62;26.73;99663.38;5607332;31;34327;-69
2023/03/24 12:47:26;;;;;;;;;;;;;;;28.31;24.98;99664.94;5607983;31;34508;-69
2023/03/24 12:50:51;;;;;;;;;;;;;;;29.06;24.07;99653.56;5607870;31;34880;-67
2023/03/24 12:54:13;;;;;;;;;;;;;;;27.86;25.30;99647.44;5607783;31;34336;-67
2023/03/24 12:57:18;;;;;;;;;;;;;;;27.66;25.89;99653.22;5606944;31;34708;-68
2023/03/24 13:00:37;;;;;;;;;;;;;;;27.58;26.04;99641.09;5593790;31;34320;-68
2023/03/24 13:03:44;;;;;;;;;;;;;;;27.64;25.82;99650.78;5606681;31;34334;-68
2023/03/24 13:06:55;;;;;;;;;;;;;;;28.76;24.49;99635.09;5602891;31;34194;-68
2023/03/24 13:10:06;;;;;;;;;;;;;;;28.36;24.86;99634.00;5605345;31;34963;-68
2023/03/24 13:13:10;;;;;;;;;;;;;;;27.39;25.96;99632.12;5606173;31;34585;-69
2023/03/24 13:16:15;;;;;;;;;;;;;;;25.92;28.12;99619.50;5606170;31;35042;-68
2023/03/24 13:19:21;;;;;;;;;;;;;;;25.44;29.18;99615.84;5606632;31;35085;-68
2023/03/24 13:22:28;;;;;;;;;;;;;;;25.77;28.49;99606.88;5606371;31;34701;-68
2023/03/24 13:25:44;;;;;;;;;;;;;;;27.30;26.53;99608.56;5608839;31;34933;-68
2023/03/24 13:29:06;;;;;;;;;;;;;;;27.13;27.12;99609.09;5609868;31;34665;-68
2023/03/24 13:32:23;;;;;;;;;;;;;;;25.71;28.01;99607.19;5608669;31;34987;-68
2023/03/24 13:35:34;;;;;;;;;;;;;;;25.21;28.61;99609.22;5608878;31;34858;-68
2023/03/24 13:38:58;;;;;;;;;;;;;;;25.23;28.63;99604.31;5609545;31;34247;-68
2023/03/24 13:42:02;;;;;;;;;;;;;;;25.55;28.34;99598.41;5609102;31;34697;-69
2023/03/24 13:45:06;;;;;;;;;;;;;;;25.37;28.84;99589.00;5609039;31;34447;-68
2023/03/24 13:48:21;;;;;;;;;;;;;;;26.60;27.49;99595.66;5609953;31;35778;-69
2023/03/24 13:51:40;;;;;;;;;;;;;;;29.28;24.12;99589.97;5608949;31;34313;-69
2023/03/24 13:54:46;;;;;;;;;;;;;;;30.17;23.14;99589.87;5608913;31;34861;-69
2023/03/24 13:57:56;;;;;;;;;;;;;;;31.10;22.12;99595.91;5609520;31;34804;-69
2023/03/24 14:01:04;;;;;;;;;;;;;;;32.50;20.61;99582.31;5609212;31;34316;-70
2023/03/24 14:04:14;;;;;;;;;;;;;;;31.52;21.41;99595.06;5609166;31;34467;-69
2023/03/24 14:07:28;;;;;;;;;;;;;;;29.17;23.42;99578.47;5608422;31;34158;-69
2023/03/24 14:10:37;;;;;;;;;;;;;;;30.95;21.93;99586.19;5608990;31;33862;-68
2023/03/24 14:13:45;;;;;;;;;;;;;;;31.77;21.05;99571.47;5609075;31;34500;-69
2023/03/24 14:16:49;;;;;;;;;;;;;;;32.36;20.54;99557.84;5609121;31;34300;-69
2023/03/24 14:20:02;;;;;;;;;;;;;;;32.39;20.50;99561.88;5608843;31;35011;-68
2023/03/24 14:23:20;;;;;;;;;;;;;;;30.22;22.38;99557.69;5608746;31;35029;-69
2023/03/24 14:26:25;;;;;;;;;;;;;;;27.91;25.02;99549.19;5609111;31;34356;-68
2023/03/24 14:29:38;;;;;;;;;;;;;;;26.78;26.74;99558.66;5608912;31;34292;-68
2023/03/24 14:32:45;;;;;;;;;;;;;;;28.36;25.13;99547.50;5609107;31;33394;-68
2023/03/24 14:35:56;;;;;;;;;;;;;;;29.73;23.54;99544.28;5608436;31;34225;-68
2023/03/24 14:39:06;;;;;;;;;;;;;;;26.45;27.39;99537.91;5608595;31;34691;-68
2023/03/24 14:42:28;;;;;;;;;;;;;;;24.76;29.33;99545.16;5607736;31;33882;-68
2023/03/24 14:45:36;;;;;;;;;;;;;;;23.34;31.48;99542.88;5608125;31;34447;-68
2023/03/24 14:49:04;;;;;;;;;;;;;;;22.73;32.58;99538.50;5609189;31;34843;-68
2023/03/24 14:52:15;;;;;;;;;;;;;;;22.23;33.50;99547.22;5595519;31;32899;-68
2023/03/24 14:55:21;;;;;;;;;;;;;;;22.07;33.98;99541.75;5609124;31;34475;-68
2023/03/24 14:58:37;;;;;;;;;;;;;;;22.37;33.53;99535.66;5608639;31;34418;-68
2023/03/24 15:01:47;;;;;;;;;;;;;;;22.38;33.65;99537.28;5608172;31;34327;-68
2023/03/24 15:05:11;;;;;;;;;;;;;;;22.40;33.69;99534.31;5608581;31;33996;-68
2023/03/24 15:08:20;;;;;;;;;;;;;;;22.42;33.84;99540.25;5608438;31;34295;-66
2023/03/24 15:11:31;;;;;;;;;;;;;;;22.24;34.07;99522.66;5608846;31;34345;-66
2023/03/24 15:14:38;;;;;;;;;;;;;;;22.08;34.11;99526.34;5609092;31;33809;-67
2023/03/24 15:17:44;;;;;;;;;;;;;;;22.14;34.20;99519.09;5608820;31;34735;-67
2023/03/24 15:20:51;;;;;;;;;;;;;;;21.99;34.42;99512.53;5608697;31;34224;-67
2023/03/24 15:23:56;;;;;;;;;;;;;;;21.93;34.67;99510.88;5608861;31;34799;-68
2023/03/24 15:27:03;;;;;;;;;;;;;;;21.75;34.98;99505.91;5607999;31;34331;-67
2023/03/24 15:30:13;;;;;;;;;;;;;;;21.61;35.11;99504.75;5607720;31;34274;-68
2023/03/24 15:33:18;;;;;;;;;;;;;;;21.40;35.49;99501.09;5608399;31;34567;-68
2023/03/24 15:36:24;;;;;;;;;;;;;;;21.27;35.80;99504.25;5608439;31;34252;-67
2023/03/24 15:39:31;;;;;;;;;;;;;;;21.23;35.89;99503.16;5608402;31;34243;-67
2023/03/24 15:42:39;;;;;;;;;;;;;;;21.20;36.11;99499.06;5608512;31;34608;-67
2023/03/24 15:45:45;;;;;;;;;;;;;;;21.16;36.29;99505.22;5607986;31;34235;-67
2023/03/24 15:48:57;;;;;;;;;;;;;;;21.05;36.52;99501.62;5608048;31;34515;-66
2023/03/24 15:52:01;;;;;;;;;;;;;;;21.00;36.65;99504.28;5608581;31;34276;-67
2023/03/24 15:55:27;;;;;;;;;;;;;;;21.00;36.53;99496.19;5607886;31;34218;-67
2023/03/24 15:58:58;;;;;;;;;;;;;;;20.98;36.65;99492.94;5607662;31;34581;-67
2023/03/24 16:02:03;;;;;;;;;;;;;;;20.94;36.82;99494.53;5606329;31;32907;-68
2023/03/24 16:05:26;;;;;;;;;;;;;;;20.88;36.80;99487.44;5607723;31;34188;-67
2023/03/24 16:08:39;;;;;;;;;;;;;;;20.85;36.98;99495.25;5607501;31;34255;-67
2023/03/24 16:11:43;;;;;;;;;;;;;;;20.85;36.95;99485.28;5608263;31;34935;-68
2023/03/24 16:14:49;;;;;;;;;;;;;;;20.63;37.14;99493.41;5607566;31;34586;-67
2023/03/24 16:17:55;;;;;;;;;;;;;;;20.54;37.27;99497.63;5608585;31;33313;-68
2023/03/24 16:21:22;;;;;;;;;;;;;;;20.43;37.49;99497.81;5608284;31;34243;-68